Time;durP1;ratioP1;P1;durP2;ratioP2;P2;SDS_P1;SDS_P2;PMS_P1;PMS_P2;Temp;Humidity;BMP_temperature;BMP_pressure;BME280_temperature;BME280_humidity;BME280_pressure;Samples;Min_cycle;Max_cycle;Signal;HPM_P1;HPM_P2
2021/04/24 00:06:55;;;;;;;15.85;7.35;;;;;;;12.50;35.58;101811.28;5056486;28;20041;-75
2021/04/24 00:09:22;;;;;;;16.27;6.55;;;;;;;12.50;35.41;101805.75;5037179;28;20067;-76
2021/04/24 00:11:49;;;;;;;12.85;7.22;;;;;;;12.26;35.88;101807.78;5035675;28;20052;-76
2021/04/24 00:14:16;;;;;;;21.17;7.78;;;;;;;12.37;35.91;101815.63;5036132;28;20072;-76
2021/04/24 00:16:43;;;;;;;17.30;7.70;;;;;;;12.57;35.42;101816.44;5052691;28;20056;-75
2021/04/24 00:19:10;;;;;;;15.50;7.13;;;;;;;12.17;36.29;101815.09;5052825;28;20048;-76
2021/04/24 00:21:37;;;;;;;20.92;7.90;;;;;;;12.34;36.30;101804.34;5052283;28;20056;-76
2021/04/24 00:24:04;;;;;;;16.90;7.20;;;;;;;12.29;36.27;101807.19;5052372;28;20056;-75
2021/04/24 00:26:31;;;;;;;18.27;7.68;;;;;;;12.23;36.66;101806.44;5052298;28;20056;-76
2021/04/24 00:28:59;;;;;;;13.20;7.05;;;;;;;12.33;36.25;101802.69;5052414;28;20040;-75
2021/04/24 00:31:26;;;;;;;14.10;7.10;;;;;;;12.39;36.25;101804.28;5034325;28;20060;-75
2021/04/24 00:33:53;;;;;;;18.45;7.68;;;;;;;12.46;35.95;101802.75;5051965;28;20041;-75
2021/04/24 00:36:23;;;;;;;15.15;7.38;;;;;;;12.28;36.31;101802.78;5051599;28;20060;-74
2021/04/24 00:38:51;;;;;;;18.02;7.20;;;;;;;12.21;36.35;101805.91;5017337;28;20404;-75
2021/04/24 00:41:18;;;;;;;14.20;7.15;;;;;;;12.28;36.32;101811.06;5034425;28;20121;-74
2021/04/24 00:43:45;;;;;;;15.30;7.53;;;;;;;12.36;36.32;101808.44;5051939;28;20072;-76
2021/04/24 00:46:14;;;;;;;15.88;6.18;;;;;;;12.31;36.89;101807.69;5050786;28;20052;-75
2021/04/24 00:48:42;;;;;;;15.07;7.27;;;;;;;12.39;36.29;101801.53;5034025;28;20057;-75
2021/04/24 00:51:09;;;;;;;14.07;6.93;;;;;;;11.92;37.11;101809.91;5050852;28;20060;-77
2021/04/24 00:53:37;;;;;;;17.90;7.25;;;;;;;11.96;37.00;101808.22;5050767;28;20045;-74
2021/04/24 00:56:05;;;;;;;14.20;7.25;;;;;;;11.95;37.29;101809.31;5051601;28;20060;-76
2021/04/24 00:58:34;;;;;;;13.30;6.70;;;;;;;11.81;37.75;101808.38;5051636;28;20063;-75
2021/04/24 01:01:02;;;;;;;13.15;6.53;;;;;;;11.83;37.63;101797.88;5051494;28;20053;-77
2021/04/24 01:07:56;;;;;;;16.42;6.13;;;;;;;11.76;37.99;101797.41;5033723;28;20048;-77
2021/04/24 01:10:23;;;;;;;14.77;6.97;;;;;;;11.75;38.33;101802.09;5051245;28;20049;-75
2021/04/24 01:12:50;;;;;;;13.68;6.70;;;;;;;12.00;37.81;101796.28;5053978;28;20045;-76
2021/04/24 01:15:18;;;;;;;16.05;7.72;;;;;;;11.93;37.88;101790.28;5055760;28;20049;-76
2021/04/24 01:22:13;;;;;;;14.63;7.30;;;;;;;11.58;38.81;101784.34;5055683;28;20037;-75
2021/04/24 01:24:40;;;;;;;18.38;7.40;;;;;;;11.22;39.44;101781.19;5038075;28;20045;-74
2021/04/24 01:27:07;;;;;;;13.25;6.60;;;;;;;11.26;39.67;101782.25;5021044;28;20049;-75
2021/04/24 01:29:36;;;;;;;18.60;7.75;;;;;;;11.18;39.87;101789.22;5036997;28;20377;-74
2021/04/24 01:36:29;;;;;;;17.15;6.93;;;;;;;11.20;39.75;101784.22;5055817;28;20037;-77
2021/04/24 01:38:56;;;;;;;16.15;7.03;;;;;;;11.18;40.63;101788.38;5055773;28;20408;-74
2021/04/24 01:41:24;;;;;;;16.42;7.40;;;;;;;11.06;40.31;101777.75;5038111;28;20060;-75
2021/04/24 01:43:55;;;;;;;16.02;7.00;;;;;;;10.99;40.46;101780.03;5055027;28;20069;-76
2021/04/24 01:46:23;;;;;;;19.30;7.18;;;;;;;10.89;40.51;101773.78;5037389;28;20045;-74
2021/04/24 01:53:22;;;;;;;17.60;6.97;;;;;;;10.91;40.88;101775.13;5054955;28;20057;-76
2021/04/24 01:55:50;;;;;;;18.13;6.95;;;;;;;11.02;40.76;101768.41;5054144;28;20048;-75
2021/04/24 01:58:22;;;;;;;19.80;6.75;;;;;;;11.16;40.51;101766.63;5055242;28;20052;-75
2021/04/24 02:00:55;;;;;;;17.50;8.15;;;;;;;11.22;41.63;101761.88;5053846;28;20109;-75
2021/04/24 02:08:05;;;;;;;16.05;6.53;;;;;;;11.33;39.98;101764.22;5054573;28;20056;-75
2021/04/24 02:10:32;;;;;;;20.48;6.95;;;;;;;11.09;40.82;101765.31;5036958;28;20408;-74
2021/04/24 02:13:02;;;;;;;15.98;7.10;;;;;;;10.96;41.23;101768.75;5053898;28;20045;-75
2021/04/24 02:15:29;;;;;;;14.77;6.93;;;;;;;10.96;41.18;101769.59;5054089;28;20397;-75
2021/04/24 02:17:56;;;;;;;13.27;6.95;;;;;;;11.11;40.93;101766.69;5055838;28;20052;-75
2021/04/24 02:20:24;;;;;;;15.23;7.80;;;;;;;10.95;41.71;101764.34;5055550;28;20060;-76
2021/04/24 02:22:51;;;;;;;16.73;7.68;;;;;;;11.33;40.78;101768.94;5054016;28;20520;-74
2021/04/24 02:25:20;;;;;;;15.80;7.07;;;;;;;11.32;40.78;101768.09;5036836;28;20053;-75
2021/04/24 02:27:48;;;;;;;15.23;7.03;;;;;;;11.19;41.59;101773.50;5054516;28;20048;-75
2021/04/24 02:30:18;;;;;;;15.05;6.90;;;;;;;11.17;40.92;101765.53;5054417;28;20053;-74
2021/04/24 02:32:45;;;;;;;20.20;7.10;;;;;;;10.88;41.68;101766.66;5054218;28;20037;-74
2021/04/24 02:35:15;;;;;;;17.80;7.18;;;;;;;10.96;41.97;101774.28;5053430;28;20054;-76
2021/04/24 02:37:42;;;;;;;;;;;;;;;10.92;41.77;101778.72;5054748;28;20048;-74
2021/04/24 02:40:14;;;;;;;18.38;7.25;;;;;;;10.71;42.36;101772.56;5053746;28;19927;-75
2021/04/24 02:42:41;;;;;;;14.88;7.00;;;;;;;10.86;42.12;101777.13;5035890;28;20484;-75
2021/04/24 02:45:10;;;;;;;16.55;7.20;;;;;;;10.82;41.96;101778.81;5053789;28;20045;-74
2021/04/24 02:47:39;;;;;;;15.93;7.53;;;;;;;11.12;41.77;101781.28;5052022;28;20072;-75
2021/04/24 02:50:14;;;;;;;14.63;7.05;;;;;;;11.14;41.75;101777.13;5036623;28;20050;-77
2021/04/24 02:52:42;;;;;;;15.50;7.07;;;;;;;10.87;42.71;101784.28;5052679;28;20524;-76
2021/04/24 02:55:11;;;;;;;15.23;7.07;;;;;;;10.86;42.73;101783.44;5036327;28;20052;-74
2021/04/24 02:57:38;;;;;;;16.52;7.72;;;;;;;10.75;44.32;101783.84;5055062;28;20072;-75
2021/04/24 03:00:07;;;;;;;15.10;7.13;;;;;;;11.12;42.45;101771.06;5052115;28;20519;-74
2021/04/24 03:02:34;;;;;;;15.88;7.35;;;;;;;11.14;42.27;101779.88;5053159;28;20495;-76
2021/04/24 03:05:05;;;;;;;15.98;6.78;;;;;;;11.34;42.56;101778.84;5053692;28;20365;-74
2021/04/24 03:07:33;;;;;;;15.43;7.03;;;;;;;11.11;42.13;101783.22;5035971;28;20049;-75
2021/04/24 03:10:00;;;;;;;16.45;7.97;;;;;;;10.85;42.93;101772.72;5053835;28;20393;-74
2021/04/24 03:12:27;;;;;;;16.92;7.53;;;;;;;10.83;43.20;101777.69;5053436;28;20045;-75
2021/04/24 03:14:54;;;;;;;14.95;7.60;;;;;;;10.77;43.57;101778.88;5053501;28;20052;-75
2021/04/24 03:17:20;;;;;;;17.08;7.65;;;;;;;10.32;44.37;101773.72;5054011;28;20404;-75
2021/04/24 03:19:47;;;;;;;14.10;7.78;;;;;;;10.34;44.43;101769.53;5053799;28;20378;-76
2021/04/24 03:22:14;;;;;;;20.58;8.10;;;;;;;10.34;44.66;101779.75;5054745;28;20045;-76
2021/04/24 03:24:42;;;;;;;16.70;7.22;;;;;;;10.51;44.21;101780.19;5054106;28;20045;-75
2021/04/24 03:27:09;;;;;;;15.60;7.32;;;;;;;10.63;44.07;101775.13;5035899;28;20056;-73
2021/04/24 03:29:36;;;;;;;15.02;7.15;;;;;;;10.50;44.40;101770.25;5053944;28;20059;-75
2021/04/24 03:32:04;;;;;;;21.30;7.75;;;;;;;10.48;44.42;101772.50;5054690;28;20041;-74
2021/04/24 03:39:00;;;;;;;16.70;7.57;;;;;;;10.09;45.49;101778.78;5052926;28;20140;-76
2021/04/24 03:41:28;;;;;;;21.25;7.18;;;;;;;9.99;46.05;101778.81;5053095;28;20052;-75
2021/04/24 03:43:55;;;;;;;19.42;7.28;;;;;;;9.92;45.97;101780.25;5052949;28;20396;-76
2021/04/24 03:46:22;;;;;;;15.30;7.93;;;;;;;9.96;46.11;101773.91;5052772;28;20052;-75
2021/04/24 03:53:17;;;;;;;14.73;7.85;;;;;;;9.97;46.43;101778.28;5018421;28;20037;-76
2021/04/24 03:55:44;;;;;;;17.42;8.07;;;;;;;10.32;45.46;101785.53;5034708;28;20056;-75
2021/04/24 03:58:12;;;;;;;18.75;7.43;;;;;;;10.36;45.44;101783.84;5052540;28;20531;-75
2021/04/24 04:00:39;;;;;;;16.48;7.40;;;;;;;10.32;45.50;101779.22;5034795;28;20049;-74
2021/04/24 04:07:32;;;;;;;14.80;7.90;;;;;;;10.15;45.79;101782.34;5052429;28;20049;-75
2021/04/24 04:09:59;;;;;;;15.32;7.90;;;;;;;9.92;46.30;101792.06;5052936;28;20041;-74
2021/04/24 04:12:26;;;;;;;16.15;7.75;;;;;;;9.87;46.60;101786.59;5034643;28;20045;-75
2021/04/24 04:14:53;;;;;;;17.88;8.52;;;;;;;9.94;46.47;101787.09;5052539;28;20048;-75
2021/04/24 04:17:19;;;;;;;18.73;7.70;;;;;;;9.99;46.16;101787.09;5034536;28;20164;-74
2021/04/24 04:24:23;;;;;;;17.08;8.57;;;;;;;9.74;47.53;101800.97;5051744;28;20056;-74
2021/04/24 04:26:50;;;;;;;17.90;7.53;;;;;;;9.85;47.11;101793.50;5034895;28;20372;-75
2021/04/24 04:29:17;;;;;;;21.65;8.43;;;;;;;9.68;47.26;101795.75;5051680;28;20049;-74
2021/04/24 04:31:44;;;;;;;22.33;8.30;;;;;;;9.49;47.77;101795.56;5035120;28;20049;-75
2021/04/24 04:34:12;;;;;;;16.15;7.75;;;;;;;9.59;48.35;101800.22;5034256;28;20049;-75
2021/04/24 04:36:39;;;;;;;17.58;7.75;;;;;;;10.00;47.66;101802.50;5053105;28;20060;-75
2021/04/24 04:39:06;;;;;;;19.55;7.88;;;;;;;9.76;47.44;101797.94;5037246;28;20048;-76
2021/04/24 04:41:33;;;;;;;21.02;8.45;;;;;;;9.40;48.21;101799.97;5035010;28;20052;-74
2021/04/24 04:44:00;;;;;;;16.25;7.82;;;;;;;9.56;48.10;101809.00;5052585;28;20109;-74
2021/04/24 04:46:28;;;;;;;22.50;9.00;;;;;;;9.33;48.36;101804.16;5051451;28;20056;-74
2021/04/24 04:48:57;;;;;;;21.48;7.97;;;;;;;9.64;48.63;101813.94;5033112;28;20049;-76
2021/04/24 04:51:24;;;;;;;18.88;8.32;;;;;;;9.79;47.45;101816.63;5051829;28;20053;-74
2021/04/24 04:53:51;;;;;;;18.65;8.48;;;;;;;9.99;47.24;101816.53;5033370;28;20060;-75
2021/04/24 04:56:18;;;;;;;19.88;8.35;;;;;;;9.48;48.23;101821.44;5050286;28;20060;-75
2021/04/24 04:58:45;;;;;;;20.70;7.80;;;;;;;9.35;48.53;101813.75;5051103;28;20048;-75
2021/04/24 05:01:12;;;;;;;21.10;8.30;;;;;;;9.84;47.54;101809.19;5034311;28;20041;-75
2021/04/24 05:08:05;;;;;;;16.90;8.93;;;;;;;9.51;47.94;101807.09;5049865;28;20055;-75
2021/04/24 05:10:32;;;;;;;21.33;8.30;;;;;;;9.53;48.56;101804.91;5051292;28;20049;-76
2021/04/24 05:13:00;;;;;;;20.65;8.80;;;;;;;9.97;50.61;101807.75;5051649;28;20049;-76
2021/04/24 05:15:32;;;;;;;18.02;8.73;;;;;;;10.17;47.11;101805.75;5051183;28;20049;-75
2021/04/24 05:17:59;;;;;;;22.40;9.13;;;;;;;9.92;48.00;101803.06;5050552;28;20049;-75
2021/04/24 05:24:56;;;;;;;19.98;8.65;;;;;;;9.52;47.91;101803.25;5051806;28;20041;-76
2021/04/24 05:27:23;;;;;;;17.83;8.67;;;;;;;9.57;47.89;101803.22;5050774;28;20061;-76
2021/04/24 05:29:50;;;;;;;18.38;9.68;;;;;;;9.57;47.68;101805.16;5051766;28;20045;-76
2021/04/24 05:32:17;;;;;;;21.60;8.52;;;;;;;9.66;47.77;101809.78;5051844;28;20064;-75
2021/04/24 05:39:13;;;;;;;21.90;9.02;;;;;;;9.92;47.80;101807.78;5052836;28;20071;-75
2021/04/24 05:41:39;;;;;;;19.05;8.13;;;;;;;9.98;47.12;101814.88;5051077;28;20492;-75
2021/04/24 05:44:06;;;;;;;19.80;8.85;;;;;;;9.84;47.33;101825.69;5051341;28;20048;-76
2021/04/24 05:46:33;;;;;;;17.15;8.15;;;;;;;9.98;46.98;101817.66;5033079;28;20049;-75
2021/04/24 05:53:26;;;;;;;16.88;9.23;;;;;;;9.77;47.30;101822.41;5052099;28;20049;-77
2021/04/24 05:55:53;;;;;;;22.05;8.98;;;;;;;9.92;47.31;101819.59;5051776;28;20118;-77
2021/04/24 05:58:20;;;;;;;16.77;8.65;;;;;;;10.22;46.47;101821.41;5053243;28;20049;-75
2021/04/24 06:00:47;;;;;;;17.50;8.55;;;;;;;9.68;47.51;101831.50;5054258;28;20045;-74
2021/04/24 06:03:16;;;;;;;20.88;8.57;;;;;;;9.62;47.33;101829.91;5055016;28;20060;-77
2021/04/24 06:05:43;;;;;;;19.08;8.88;;;;;;;9.69;47.58;101827.69;5054389;28;20057;-74
2021/04/24 06:08:10;;;;;;;19.58;8.52;;;;;;;9.98;46.85;101828.66;5055296;28;20057;-75
2021/04/24 06:10:37;;;;;;;19.38;9.32;;;;;;;9.63;47.34;101831.53;5037427;28;20064;-74
2021/04/24 06:13:03;;;;;;;16.35;8.38;;;;;;;9.56;47.84;101823.59;5036967;28;20047;-76
2021/04/24 06:15:31;;;;;;;28.13;10.05;;;;;;;9.69;47.50;101827.69;5055485;28;20041;-76
2021/04/24 06:17:58;;;;;;;21.27;8.82;;;;;;;9.67;47.45;101819.72;5055583;28;20045;-75
2021/04/24 06:20:25;;;;;;;19.73;8.80;;;;;;;9.65;47.48;101832.09;5036606;28;20052;-77
2021/04/24 06:22:52;;;;;;;24.45;8.93;;;;;;;9.43;48.32;101826.91;5036616;28;20049;-77
2021/04/24 06:25:22;;;;;;;21.95;9.75;;;;;;;9.64;47.35;101820.25;5036859;28;20412;-76
2021/04/24 06:27:49;;;;;;;20.58;9.23;;;;;;;9.50;47.88;101829.38;5054589;28;20053;-76
2021/04/24 06:30:18;;;;;;;20.52;9.38;;;;;;;9.48;47.60;101823.34;5054080;28;20045;-74
2021/04/24 06:32:48;;;;;;;17.90;9.43;;;;;;;9.96;47.78;101823.44;5020329;28;20044;-76
2021/04/24 06:35:16;;;;;;;19.17;8.68;;;;;;;10.44;46.35;101821.81;5053589;28;20041;-75
2021/04/24 06:37:43;;;;;;;17.80;8.85;;;;;;;10.55;45.70;101823.38;5054119;28;20060;-74
2021/04/24 06:40:12;;;;;;;20.50;9.10;;;;;;;10.83;44.82;101819.03;5054545;28;20045;-76
2021/04/24 06:42:39;;;;;;;19.15;9.30;;;;;;;10.79;44.64;101817.97;5036551;28;20404;-75
2021/04/24 06:45:09;;;;;;;19.38;9.15;;;;;;;10.07;46.02;101824.22;5053085;28;20404;-76
2021/04/24 06:47:37;;;;;;;23.10;9.23;;;;;;;10.23;45.73;101823.84;5054930;28;20400;-74
2021/04/24 06:50:07;;;;;;;22.35;10.07;;;;;;;10.54;44.71;101832.78;5037049;28;20049;-74
2021/04/24 06:52:33;;;;;;;22.35;9.38;;;;;;;10.67;45.26;101829.34;5054542;28;20049;-75
2021/04/24 06:55:01;;;;;;;21.90;8.77;;;;;;;10.40;44.86;101823.50;5054907;28;20052;-77
2021/04/24 06:57:27;;;;;;;17.33;9.73;;;;;;;10.10;45.40;101826.41;5055858;28;20131;-76
2021/04/24 06:59:54;;;;;;;26.42;9.85;;;;;;;10.38;44.96;101825.72;5054341;28;20045;-75
2021/04/24 07:02:22;;;;;;;22.15;9.73;;;;;;;10.28;45.00;101817.53;5037218;28;20171;-75
2021/04/24 07:04:49;;;;;;;19.02;9.27;;;;;;;10.44;44.42;101813.56;5053147;28;20080;-78
2021/04/24 07:07:16;;;;;;;19.83;9.93;;;;;;;10.53;44.49;101817.34;5036944;28;20053;-77
2021/04/24 07:09:43;;;;;;;17.92;9.90;;;;;;;10.55;44.65;101828.09;5035527;28;20064;-76
2021/04/24 07:12:10;;;;;;;22.30;10.88;;;;;;;10.77;44.11;101822.97;5036633;28;20059;-77
2021/04/24 07:14:38;;;;;;;19.65;10.48;;;;;;;10.91;43.77;101818.44;5035811;28;20056;-76
2021/04/24 07:17:08;;;;;;;19.48;9.38;;;;;;;10.86;43.63;101818.47;5054224;28;20049;-75
2021/04/24 07:19:36;;;;;;;19.23;9.48;;;;;;;10.79;43.89;101820.75;5035377;28;20053;-77
2021/04/24 07:22:04;;;;;;;20.33;9.80;;;;;;;11.03;45.31;101814.19;5053836;28;20045;-78
2021/04/24 07:24:31;;;;;;;25.58;11.43;;;;;;;11.16;43.22;101813.50;5053596;28;20041;-76
2021/04/24 07:26:58;;;;;;;22.63;10.43;;;;;;;11.32;42.66;101815.00;5053509;28;20045;-77
2021/04/24 07:29:26;;;;;;;22.33;9.52;;;;;;;11.39;42.90;101811.88;5053246;28;20064;-75
2021/04/24 07:31:53;;;;;;;22.60;10.38;;;;;;;11.42;43.03;101807.72;5035765;28;20074;-76
2021/04/24 07:34:20;;;;;;;22.55;9.98;;;;;;;11.50;42.47;101807.91;5053339;28;20476;-75
2021/04/24 07:41:17;;;;;;;23.30;9.70;;;;;;;11.53;42.65;101800.97;4971897;28;20074;-75
2021/04/24 07:43:45;;;;;;;23.17;10.70;;;;;;;11.58;41.90;101798.16;4972544;28;20054;-75
2021/04/24 07:46:13;;;;;;;22.90;10.35;;;;;;;11.47;41.96;101794.72;4972870;28;20051;-75
2021/04/24 07:48:41;;;;;;;23.92;10.55;;;;;;;11.46;42.71;101790.28;4972445;28;20058;-77
2021/04/24 07:55:38;;;;;;;22.42;10.30;;;;;;;11.76;42.06;101786.38;4972397;28;20043;-75
2021/04/24 07:58:06;;;;;;;26.63;10.00;;;;;;;12.07;42.10;101790.38;4973037;28;20067;-78
2021/04/24 08:00:33;;;;;;;22.88;10.65;;;;;;;12.13;41.31;101787.22;4983305;28;20067;-75
2021/04/24 08:03:00;;;;;;;23.35;9.38;;;;;;;12.13;41.19;101791.97;5035416;28;20052;-76
2021/04/24 08:10:07;;;;;;;18.42;10.48;;;;;;;12.15;41.68;101773.94;5052340;28;20388;-74
2021/04/24 08:12:34;;;;;;;25.02;10.75;;;;;;;12.21;40.81;101775.53;5052184;28;20049;-74
2021/04/24 08:15:01;;;;;;;24.45;10.77;;;;;;;12.41;40.50;101775.22;5034483;28;20067;-75
2021/04/24 08:17:28;;;;;;;17.95;9.82;;;;;;;12.54;39.60;101775.56;5035013;28;20393;-76
2021/04/24 08:19:55;;;;;;;26.00;10.70;;;;;;;12.39;39.42;101774.72;5034494;28;20123;-76
2021/04/24 08:22:23;;;;;;;25.05;10.18;;;;;;;12.63;39.26;101771.84;5052418;28;20068;-76
2021/04/24 08:24:50;;;;;;;20.92;11.35;;;;;;;12.60;39.89;101772.44;5053878;28;20045;-75
2021/04/24 08:27:17;;;;;;;21.75;10.65;;;;;;;12.56;40.15;101765.88;5034615;28;20056;-74
2021/04/24 08:29:44;;;;;;;27.23;11.40;;;;;;;12.79;39.56;101775.16;5035272;28;20398;-74
2021/04/24 08:32:12;;;;;;;19.75;10.13;;;;;;;12.64;39.27;101775.44;5018626;28;20044;-78
2021/04/24 08:34:39;;;;;;;19.45;10.00;;;;;;;12.56;39.15;101759.50;5034343;28;20040;-78
2021/04/24 08:41:33;;;;;;;26.38;10.40;;;;;;;13.25;38.37;101771.31;5052671;28;20128;-76
2021/04/24 08:44:00;;;;;;;22.05;10.48;;;;;;;13.16;38.66;101769.56;5051095;28;20060;-77
2021/04/24 08:46:27;;;;;;;20.80;10.35;;;;;;;13.29;38.52;101768.75;5052129;28;20049;-79
2021/04/24 08:48:55;;;;;;;22.45;10.82;;;;;;;13.34;38.72;101761.16;5034722;28;20049;-75
2021/04/24 08:51:25;;;;;;;24.92;9.68;;;;;;;13.42;38.86;101754.13;5034949;28;20041;-75
2021/04/24 08:53:53;;;;;;;23.55;11.35;;;;;;;13.59;37.82;101757.06;5051697;28;20048;-73
2021/04/24 08:56:25;;;;;;;24.42;9.85;;;;;;;13.86;39.23;101747.94;5017856;28;20057;-77
2021/04/24 08:58:52;;;;;;;20.50;10.18;;;;;;;14.13;37.92;101734.84;5051941;28;20053;-79
2021/04/24 09:01:20;;;;;;;24.15;9.90;;;;;;;14.02;38.13;101744.50;5052223;28;20041;-78
2021/04/24 09:03:51;;;;;;;26.35;10.45;;;;;;;13.91;38.02;101742.28;5035354;28;20048;-79
2021/04/24 09:06:23;;;;;;;24.95;10.27;;;;;;;13.99;39.36;101733.22;5052170;28;20045;-74
2021/04/24 09:08:56;;;;;;;19.70;8.57;;;;;;;14.17;39.52;101744.16;5051133;28;20067;-77
2021/04/24 09:11:23;;;;;;;21.98;10.23;;;;;;;14.42;39.49;101732.50;5052164;28;20044;-77
2021/04/24 09:13:58;;;;;;;20.60;9.98;;;;;;;14.23;37.42;101740.13;5033748;28;20051;-76
2021/04/24 09:16:26;;;;;;;19.75;9.95;;;;;;;14.02;38.56;101732.59;5034104;28;20061;-76
2021/04/24 09:18:54;;;;;;;20.80;10.80;;;;;;;14.08;37.76;101731.34;5051067;28;20053;-77
2021/04/24 09:21:26;;;;;;;19.50;10.13;;;;;;;14.19;37.84;101730.00;5047723;28;20056;-76
2021/04/24 09:23:54;;;;;;;19.33;9.93;;;;;;;14.19;37.54;101741.88;5050620;28;20060;-72
2021/04/24 09:26:23;;;;;;;24.08;10.55;;;;;;;14.37;36.88;101743.72;5050299;28;20420;-74
2021/04/24 09:29:02;;;;;;;17.60;9.70;;;;;;;14.49;37.00;101737.59;5033413;28;20464;-75
2021/04/24 09:31:34;;;;;;;22.00;10.68;;;;;;;14.74;37.90;101739.72;5050720;28;20048;-74
2021/04/24 09:34:03;;;;;;;22.83;10.32;;;;;;;14.74;37.27;101736.97;5019269;28;20388;-73
2021/04/24 09:36:39;;;;;;;16.87;9.13;;;;;;;14.78;37.49;101737.16;5055944;28;20041;-72
2021/04/24 09:39:10;;;;;;;22.48;10.75;;;;;;;14.77;36.92;101732.75;5056515;28;20044;-74
2021/04/24 09:41:41;;;;;;;22.77;10.88;;;;;;;14.80;38.30;101734.88;5055364;28;20045;-75
2021/04/24 09:44:16;;;;;;;26.85;10.40;;;;;;;15.04;37.06;101727.84;5054464;28;20045;-74
2021/04/24 09:46:46;;;;;;;22.63;10.02;;;;;;;15.39;38.28;101728.81;5055022;28;20049;-76
2021/04/24 09:49:17;;;;;;;;;;;;;;;15.02;36.40;101729.28;5055519;28;20095;-77
2021/04/24 09:51:55;;;;;;;20.95;9.23;;;;;;;15.38;35.87;101724.38;5054731;28;19921;-70
2021/04/24 09:54:47;;;;;;;25.33;10.10;;;;;;;15.44;36.26;101723.16;5054538;28;20056;-73
2021/04/24 09:57:22;;;;;;;22.42;9.77;;;;;;;14.98;35.03;101728.28;5054451;28;20045;-73
2021/04/24 09:59:59;;;;;;;21.40;9.65;;;;;;;15.01;35.10;101738.75;5054492;28;20053;-72
2021/04/24 10:02:31;;;;;;;20.17;9.60;;;;;;;15.16;35.48;101736.41;5036744;28;20049;-72
2021/04/24 10:05:18;;;;;;;21.85;10.23;;;;;;;15.37;35.19;101723.59;5036126;28;20049;-72
2021/04/24 10:07:47;;;;;;;21.48;9.90;;;;;;;15.52;34.40;101725.94;5036054;28;20079;-72
2021/04/24 10:10:24;;;;;;;19.73;9.63;;;;;;;15.24;34.72;101732.00;5054579;28;20078;-71
2021/04/24 10:13:05;;;;;;;24.25;9.63;;;;;;;15.30;35.40;101737.09;5054679;28;20049;-72
2021/04/24 10:15:45;;;;;;;22.40;11.50;;;;;;;15.46;34.94;101729.19;5035981;28;20496;-74
2021/04/24 10:18:16;;;;;;;20.52;11.05;;;;;;;15.53;35.23;101733.13;5004730;28;20080;-72
2021/04/24 10:20:48;;;;;;;16.25;9.50;;;;;;;15.62;34.15;101727.63;5037371;28;20045;-71
2021/04/24 10:23:16;;;;;;;19.17;9.65;;;;;;;15.63;34.36;101723.69;5036504;28;20045;-72
2021/04/24 10:25:43;;;;;;;18.48;10.25;;;;;;;15.68;33.82;101717.97;5054087;28;20044;-74
2021/04/24 10:28:10;;;;;;;20.30;9.38;;;;;;;15.81;34.61;101716.22;5036384;28;20053;-73
2021/04/24 10:30:40;;;;;;;18.40;9.25;;;;;;;15.89;33.42;101715.41;5054031;28;20044;-74
2021/04/24 10:33:08;;;;;;;16.70;9.40;;;;;;;16.07;33.52;101712.34;5036235;28;20056;-73
2021/04/24 10:35:36;;;;;;;17.42;8.90;;;;;;;15.96;32.78;101716.56;5036006;28;20053;-75
2021/04/24 10:38:06;;;;;;;21.95;9.20;;;;;;;16.00;33.20;101709.22;5052421;28;20048;-74
2021/04/24 10:40:33;;;;;;;;;;;;;;;16.14;34.08;101703.50;5054220;28;20060;-73
2021/04/24 10:43:00;;;;;;;23.27;8.82;;;;;;;16.32;32.73;101710.72;5036416;28;19920;-76
2021/04/24 10:45:34;;;;;;;15.88;9.35;;;;;;;16.22;32.64;101691.56;5019079;28;20045;-73
2021/04/24 10:48:02;;;;;;;18.80;9.05;;;;;;;16.19;33.44;101700.56;5052411;28;20534;-71
2021/04/24 10:50:39;;;;;;;17.38;8.73;;;;;;;16.20;32.53;101686.31;5051847;28;20500;-74
2021/04/24 10:53:17;;;;;;;17.15;9.27;;;;;;;16.25;32.13;101697.28;5035644;28;20515;-74
2021/04/24 10:55:45;;;;;;;22.40;8.88;;;;;;;16.23;32.12;101685.66;5035587;28;20378;-72
2021/04/24 10:58:17;;;;;;;18.10;8.70;;;;;;;16.53;33.31;101681.91;5053818;28;20052;-71
2021/04/24 11:00:50;;;;;;;18.83;8.88;;;;;;;16.70;31.91;101684.66;5052032;28;20560;-72
2021/04/24 11:03:35;;;;;;;17.48;8.73;;;;;;;16.87;31.36;101683.78;5035695;28;20041;-69
2021/04/24 11:06:12;;;;;;;15.55;7.97;;;;;;;16.84;30.09;101681.69;5035509;28;20061;-72
2021/04/24 11:08:44;;;;;;;18.95;8.60;;;;;;;16.87;29.99;101669.88;5053946;28;20053;-72
2021/04/24 11:11:16;;;;;;;14.30;7.78;;;;;;;16.98;29.33;101668.34;5053370;28;20052;-71
2021/04/24 11:13:48;;;;;;;12.80;6.97;;;;;;;16.94;30.65;101667.41;5052868;28;20060;-72
2021/04/24 11:16:31;;;;;;;14.77;8.43;;;;;;;16.89;29.75;101668.38;5053381;28;20055;-72
2021/04/24 11:18:59;;;;;;;19.65;8.70;;;;;;;16.86;30.85;101669.06;5053526;28;20473;-74
2021/04/24 11:25:54;;;;;;;17.88;7.70;;;;;;;16.89;30.52;101659.25;5052361;28;20049;-72
2021/04/24 11:28:21;;;;;;;14.40;7.70;;;;;;;16.88;28.86;101663.16;5034663;28;20052;-71
2021/04/24 11:30:55;;;;;;;15.88;6.90;;;;;;;16.97;29.02;101661.16;5019724;28;20396;-73
2021/04/24 11:33:31;;;;;;;15.82;7.07;;;;;;;17.29;28.67;101656.94;5018524;28;20049;-73
2021/04/24 11:36:25;;;;;;;18.48;7.97;;;;;;;17.57;29.31;101655.31;5053414;28;20045;-75
2021/04/24 11:41:33;;;;;;;14.70;8.25;;;;;;;17.42;28.12;101630.78;5052795;28;20045;-76
2021/04/24 11:44:15;;;;;;;14.57;7.70;;;;;;;17.23;27.88;101631.22;5052958;28;20057;-75
2021/04/24 11:46:43;;;;;;;19.08;8.13;;;;;;;17.31;28.29;101627.56;5035452;28;20049;-75
2021/04/24 11:49:49;;;;;;;16.98;8.48;;;;;;;17.36;28.46;101635.75;5054305;28;20060;-74
2021/04/24 11:56:06;;;;;;;19.10;8.52;;;;;;;17.40;27.32;101633.13;5032514;28;20045;-75
2021/04/24 11:58:33;;;;;;;14.73;8.45;;;;;;;17.32;27.86;101625.63;5015019;28;20049;-73
2021/04/24 12:01:01;;;;;;;15.75;8.68;;;;;;;17.45;27.92;101627.34;4998592;28;20057;-76
2021/04/24 12:03:35;;;;;;;13.82;7.22;;;;;;;17.44;27.10;101617.34;4998849;28;20049;-74
2021/04/24 12:06:01;;;;;;;15.18;7.97;;;;;;;17.74;27.84;101610.59;5032398;28;20057;-76
2021/04/24 12:08:29;;;;;;;15.50;7.88;;;;;;;17.85;27.39;101611.84;5015111;28;20056;-77
2021/04/24 12:10:55;;;;;;;20.67;8.82;;;;;;;17.77;27.48;101605.19;4998861;28;20045;-72
2021/04/24 12:13:22;;;;;;;15.65;8.93;;;;;;;17.86;27.48;101599.53;5015158;28;20049;-75
2021/04/24 12:15:53;;;;;;;15.63;8.73;;;;;;;17.95;27.85;101597.47;5030483;28;20053;-74
2021/04/24 12:18:19;;;;;;;;;;;;;;;18.15;27.57;101613.34;5033091;28;20389;-73
2021/04/24 12:20:46;;;;;;;19.10;9.50;;;;;;;17.91;28.03;101611.28;5013929;28;20415;-78
2021/04/24 12:23:15;;;;;;;15.57;9.07;;;;;;;17.88;28.44;101609.19;5032432;28;20060;-77
2021/04/24 12:25:46;;;;;;;24.15;9.13;;;;;;;18.02;28.29;101602.50;5014130;28;20505;-75
2021/04/24 12:28:14;;;;;;;19.25;9.20;;;;;;;18.03;28.20;101607.72;5030820;28;20049;-75
2021/04/24 12:30:46;;;;;;;13.57;9.13;;;;;;;17.92;28.38;101606.53;5013971;28;20052;-73
2021/04/24 12:33:15;;;;;;;24.80;9.82;;;;;;;17.98;28.25;101603.19;5032086;28;20049;-77
2021/04/24 12:35:48;;;;;;;17.60;9.07;;;;;;;18.09;28.25;101603.59;5032044;28;20045;-75
2021/04/24 12:38:22;;;;;;;18.17;9.45;;;;;;;18.05;28.06;101610.16;5014456;28;20412;-75
2021/04/24 12:40:57;;;;;;;16.63;9.23;;;;;;;18.12;27.97;101611.25;5032689;28;20057;-75
2021/04/24 12:43:32;;;;;;;16.73;8.73;;;;;;;18.34;27.60;101602.50;5032312;28;20056;-72
2021/04/24 12:46:02;;;;;;;16.73;9.15;;;;;;;18.35;27.94;101608.91;5031296;28;20060;-73
2021/04/24 12:48:41;;;;;;;17.10;9.48;;;;;;;18.45;28.60;101600.13;5031667;28;20406;-72
2021/04/24 12:51:13;;;;;;;19.27;9.70;;;;;;;18.58;28.01;101601.78;5031375;28;20045;-72
2021/04/24 12:53:42;;;;;;;16.70;8.85;;;;;;;18.54;27.37;101592.47;5030930;28;20045;-72
2021/04/24 12:56:21;;;;;;;20.10;8.35;;;;;;;18.44;27.48;101590.97;5033794;28;20049;-73
2021/04/24 12:58:50;;;;;;;13.73;8.77;;;;;;;18.70;27.47;101594.25;5051212;28;20057;-74
2021/04/24 13:01:19;;;;;;;20.23;9.90;;;;;;;18.71;27.05;101603.44;5034165;28;20049;-75